sensor_id;sensor_type;location;lat;lon;timestamp;P1;durP1;ratioP1;P2;durP2;ratioP2
6983;SDS011;3532;51.118;7.210;2023-06-05T00:01:13;2.73;;;2.00;;
6983;SDS011;3532;51.118;7.210;2023-06-05T00:03:39;2.43;;;2.23;;
6983;SDS011;3532;51.118;7.210;2023-06-05T00:06:04;2.83;;;2.40;;
6983;SDS011;3532;51.118;7.210;2023-06-05T00:08:31;2.80;;;2.43;;
6983;SDS011;3532;51.118;7.210;2023-06-05T00:10:56;3.63;;;2.27;;
6983;SDS011;3532;51.118;7.210;2023-06-05T00:13:21;3.93;;;2.40;;
6983;SDS011;3532;51.118;7.210;2023-06-05T00:15:47;2.43;;;2.13;;
6983;SDS011;3532;51.118;7.210;2023-06-05T00:18:12;2.73;;;2.53;;
6983;SDS011;3532;51.118;7.210;2023-06-05T00:20:39;4.53;;;2.50;;
6983;SDS011;3532;51.118;7.210;2023-06-05T00:23:04;4.23;;;2.50;;
6983;SDS011;3532;51.118;7.210;2023-06-05T00:25:31;5.30;;;2.30;;
6983;SDS011;3532;51.118;7.210;2023-06-05T00:27:56;3.27;;;1.93;;
6983;SDS011;3532;51.118;7.210;2023-06-05T00:30:21;2.43;;;2.10;;
6983;SDS011;3532;51.118;7.210;2023-06-05T00:32:46;2.50;;;2.10;;
6983;SDS011;3532;51.118;7.210;2023-06-05T00:35:12;2.23;;;2.10;;
6983;SDS011;3532;51.118;7.210;2023-06-05T00:37:37;3.70;;;2.27;;
6983;SDS011;3532;51.118;7.210;2023-06-05T00:40:04;1.83;;;1.73;;
6983;SDS011;3532;51.118;7.210;2023-06-05T00:42:30;3.57;;;2.07;;
6983;SDS011;3532;51.118;7.210;2023-06-05T00:44:55;2.97;;;2.60;;
6983;SDS011;3532;51.118;7.210;2023-06-05T00:47:21;4.93;;;2.70;;
6983;SDS011;3532;51.118;7.210;2023-06-05T00:49:47;2.63;;;2.43;;
6983;SDS011;3532;51.118;7.210;2023-06-05T00:52:12;2.90;;;2.60;;
6983;SDS011;3532;51.118;7.210;2023-06-05T00:54:38;5.13;;;2.20;;
6983;SDS011;3532;51.118;7.210;2023-06-05T00:57:05;2.63;;;2.20;;
6983;SDS011;3532;51.118;7.210;2023-06-05T00:59:32;4.80;;;2.33;;
6983;SDS011;3532;51.118;7.210;2023-06-05T01:01:59;5.00;;;2.43;;
6983;SDS011;3532;51.118;7.210;2023-06-05T01:04:26;2.77;;;2.40;;
6983;SDS011;3532;51.118;7.210;2023-06-05T01:06:52;3.00;;;2.37;;
6983;SDS011;3532;51.118;7.210;2023-06-05T01:09:18;3.20;;;2.23;;
6983;SDS011;3532;51.118;7.210;2023-06-05T01:14:46;3.30;;;2.47;;
6983;SDS011;3532;51.118;7.210;2023-06-05T01:17:14;3.50;;;2.53;;
6983;SDS011;3532;51.118;7.210;2023-06-05T01:19:43;2.87;;;2.40;;
6983;SDS011;3532;51.118;7.210;2023-06-05T01:22:09;2.90;;;2.60;;
6983;SDS011;3532;51.118;7.210;2023-06-05T01:24:34;5.67;;;2.37;;
6983;SDS011;3532;51.118;7.210;2023-06-05T01:35:09;3.43;;;2.73;;
6983;SDS011;3532;51.118;7.210;2023-06-05T01:37:45;3.93;;;2.70;;
6983;SDS011;3532;51.118;7.210;2023-06-05T01:40:14;3.60;;;2.87;;
6983;SDS011;3532;51.118;7.210;2023-06-05T01:42:42;2.70;;;2.27;;
6983;SDS011;3532;51.118;7.210;2023-06-05T01:45:08;4.07;;;2.67;;
6983;SDS011;3532;51.118;7.210;2023-06-05T01:47:37;3.97;;;2.60;;
6983;SDS011;3532;51.118;7.210;2023-06-05T01:50:04;4.03;;;2.13;;
6983;SDS011;3532;51.118;7.210;2023-06-05T01:52:30;3.10;;;2.37;;
6983;SDS011;3532;51.118;7.210;2023-06-05T01:54:56;2.80;;;2.43;;
6983;SDS011;3532;51.118;7.210;2023-06-05T01:57:26;6.60;;;3.00;;
6983;SDS011;3532;51.118;7.210;2023-06-05T01:59:52;6.30;;;2.60;;
6983;SDS011;3532;51.118;7.210;2023-06-05T02:02:19;4.37;;;2.47;;
6983;SDS011;3532;51.118;7.210;2023-06-05T02:04:44;3.27;;;2.40;;
6983;SDS011;3532;51.118;7.210;2023-06-05T02:07:12;3.33;;;2.80;;
6983;SDS011;3532;51.118;7.210;2023-06-05T02:09:39;5.57;;;2.80;;
6983;SDS011;3532;51.118;7.210;2023-06-05T02:12:05;5.30;;;2.77;;
6983;SDS011;3532;51.118;7.210;2023-06-05T02:14:31;2.80;;;2.37;;
6983;SDS011;3532;51.118;7.210;2023-06-05T02:17:01;4.60;;;2.90;;
6983;SDS011;3532;51.118;7.210;2023-06-05T02:19:31;7.50;;;2.93;;
6983;SDS011;3532;51.118;7.210;2023-06-05T02:21:56;3.50;;;2.70;;
6983;SDS011;3532;51.118;7.210;2023-06-05T02:24:21;4.10;;;2.87;;
6983;SDS011;3532;51.118;7.210;2023-06-05T02:26:47;3.80;;;2.83;;
6983;SDS011;3532;51.118;7.210;2023-06-05T02:29:13;4.53;;;2.90;;
6983;SDS011;3532;51.118;7.210;2023-06-05T02:31:38;6.80;;;3.10;;
6983;SDS011;3532;51.118;7.210;2023-06-05T02:34:04;4.33;;;3.20;;
6983;SDS011;3532;51.118;7.210;2023-06-05T02:36:29;4.63;;;3.20;;
6983;SDS011;3532;51.118;7.210;2023-06-05T02:38:58;3.83;;;3.43;;
6983;SDS011;3532;51.118;7.210;2023-06-05T02:41:23;4.70;;;3.13;;
6983;SDS011;3532;51.118;7.210;2023-06-05T02:43:49;6.03;;;3.43;;
6983;SDS011;3532;51.118;7.210;2023-06-05T02:46:15;5.17;;;3.63;;
6983;SDS011;3532;51.118;7.210;2023-06-05T02:48:40;4.27;;;3.30;;
6983;SDS011;3532;51.118;7.210;2023-06-05T02:51:05;3.60;;;3.30;;
6983;SDS011;3532;51.118;7.210;2023-06-05T02:53:31;3.27;;;3.03;;
6983;SDS011;3532;51.118;7.210;2023-06-05T02:55:57;4.47;;;3.47;;
6983;SDS011;3532;51.118;7.210;2023-06-05T02:58:24;7.87;;;3.60;;
6983;SDS011;3532;51.118;7.210;2023-06-05T03:00:49;7.60;;;3.83;;
6983;SDS011;3532;51.118;7.210;2023-06-05T03:03:15;4.07;;;3.57;;
6983;SDS011;3532;51.118;7.210;2023-06-05T03:05:42;3.40;;;3.10;;
6983;SDS011;3532;51.118;7.210;2023-06-05T03:08:09;4.70;;;4.13;;
6983;SDS011;3532;51.118;7.210;2023-06-05T03:10:35;3.80;;;3.40;;
6983;SDS011;3532;51.118;7.210;2023-06-05T03:13:00;5.63;;;3.97;;
6983;SDS011;3532;51.118;7.210;2023-06-05T03:15:25;4.60;;;3.70;;
6983;SDS011;3532;51.118;7.210;2023-06-05T03:17:52;6.47;;;4.00;;
6983;SDS011;3532;51.118;7.210;2023-06-05T03:20:18;6.07;;;3.30;;
6983;SDS011;3532;51.118;7.210;2023-06-05T03:22:44;4.67;;;4.17;;
6983;SDS011;3532;51.118;7.210;2023-06-05T03:25:09;6.93;;;3.60;;
6983;SDS011;3532;51.118;7.210;2023-06-05T03:27:35;5.00;;;3.60;;
6983;SDS011;3532;51.118;7.210;2023-06-05T03:30:01;4.17;;;3.60;;
6983;SDS011;3532;51.118;7.210;2023-06-05T03:32:27;6.10;;;4.10;;
6983;SDS011;3532;51.118;7.210;2023-06-05T03:34:52;4.97;;;3.30;;
6983;SDS011;3532;51.118;7.210;2023-06-05T03:37:17;4.83;;;4.00;;
6983;SDS011;3532;51.118;7.210;2023-06-05T03:39:43;4.40;;;4.00;;
6983;SDS011;3532;51.118;7.210;2023-06-05T03:42:08;5.17;;;3.80;;
6983;SDS011;3532;51.118;7.210;2023-06-05T03:44:36;5.23;;;3.87;;
6983;SDS011;3532;51.118;7.210;2023-06-05T03:47:01;7.30;;;4.27;;
6983;SDS011;3532;51.118;7.210;2023-06-05T03:49:27;5.27;;;3.53;;
6983;SDS011;3532;51.118;7.210;2023-06-05T03:51:53;8.70;;;4.33;;
6983;SDS011;3532;51.118;7.210;2023-06-05T03:54:26;12.77;;;4.40;;
6983;SDS011;3532;51.118;7.210;2023-06-05T03:56:57;7.27;;;4.50;;
6983;SDS011;3532;51.118;7.210;2023-06-05T03:59:23;6.43;;;3.93;;
6983;SDS011;3532;51.118;7.210;2023-06-05T04:01:50;9.80;;;4.00;;
6983;SDS011;3532;51.118;7.210;2023-06-05T04:04:15;5.23;;;4.10;;
6983;SDS011;3532;51.118;7.210;2023-06-05T04:06:41;7.07;;;3.93;;
6983;SDS011;3532;51.118;7.210;2023-06-05T04:09:06;4.43;;;3.60;;
6983;SDS011;3532;51.118;7.210;2023-06-05T04:11:41;12.40;;;5.23;;
6983;SDS011;3532;51.118;7.210;2023-06-05T04:14:10;6.33;;;4.27;;
6983;SDS011;3532;51.118;7.210;2023-06-05T04:16:36;4.30;;;3.90;;
6983;SDS011;3532;51.118;7.210;2023-06-05T04:19:04;6.20;;;4.17;;
6983;SDS011;3532;51.118;7.210;2023-06-05T04:21:34;5.33;;;4.07;;
6983;SDS011;3532;51.118;7.210;2023-06-05T04:24:01;6.93;;;4.40;;
6983;SDS011;3532;51.118;7.210;2023-06-05T04:26:31;5.80;;;3.90;;
6983;SDS011;3532;51.118;7.210;2023-06-05T04:28:56;7.00;;;4.13;;
6983;SDS011;3532;51.118;7.210;2023-06-05T04:31:22;6.00;;;3.87;;
6983;SDS011;3532;51.118;7.210;2023-06-05T04:33:50;4.70;;;3.93;;
6983;SDS011;3532;51.118;7.210;2023-06-05T04:36:15;7.27;;;4.30;;
6983;SDS011;3532;51.118;7.210;2023-06-05T04:38:42;4.63;;;3.50;;
6983;SDS011;3532;51.118;7.210;2023-06-05T04:41:08;4.90;;;4.10;;
6983;SDS011;3532;51.118;7.210;2023-06-05T04:43:35;6.10;;;4.00;;
6983;SDS011;3532;51.118;7.210;2023-06-05T04:46:01;5.67;;;4.13;;
6983;SDS011;3532;51.118;7.210;2023-06-05T04:48:26;4.50;;;3.43;;
6983;SDS011;3532;51.118;7.210;2023-06-05T04:50:52;5.10;;;3.10;;
6983;SDS011;3532;51.118;7.210;2023-06-05T04:53:18;5.40;;;3.93;;
6983;SDS011;3532;51.118;7.210;2023-06-05T04:55:43;6.40;;;3.60;;
6983;SDS011;3532;51.118;7.210;2023-06-05T04:58:10;7.43;;;3.70;;
6983;SDS011;3532;51.118;7.210;2023-06-05T05:00:35;3.60;;;3.27;;
6983;SDS011;3532;51.118;7.210;2023-06-05T05:03:01;4.67;;;3.67;;
6983;SDS011;3532;51.118;7.210;2023-06-05T05:05:26;7.80;;;3.63;;
6983;SDS011;3532;51.118;7.210;2023-06-05T05:07:51;5.87;;;3.30;;
6983;SDS011;3532;51.118;7.210;2023-06-05T05:10:17;3.83;;;3.20;;
6983;SDS011;3532;51.118;7.210;2023-06-05T05:12:42;4.77;;;3.43;;
6983;SDS011;3532;51.118;7.210;2023-06-05T05:15:08;3.83;;;2.87;;
6983;SDS011;3532;51.118;7.210;2023-06-05T05:17:33;4.03;;;3.17;;
6983;SDS011;3532;51.118;7.210;2023-06-05T05:19:59;6.67;;;3.50;;
6983;SDS011;3532;51.118;7.210;2023-06-05T05:22:25;5.53;;;3.80;;
6983;SDS011;3532;51.118;7.210;2023-06-05T05:24:51;4.10;;;3.00;;
6983;SDS011;3532;51.118;7.210;2023-06-05T05:27:16;3.80;;;3.37;;
6983;SDS011;3532;51.118;7.210;2023-06-05T05:29:41;3.93;;;2.97;;
6983;SDS011;3532;51.118;7.210;2023-06-05T05:32:07;4.73;;;3.60;;
6983;SDS011;3532;51.118;7.210;2023-06-05T05:34:32;4.40;;;2.97;;
6983;SDS011;3532;51.118;7.210;2023-06-05T05:36:58;6.97;;;3.30;;
6983;SDS011;3532;51.118;7.210;2023-06-05T05:39:24;4.63;;;3.43;;
6983;SDS011;3532;51.118;7.210;2023-06-05T05:41:50;4.87;;;3.53;;
6983;SDS011;3532;51.118;7.210;2023-06-05T05:44:15;4.67;;;3.27;;
6983;SDS011;3532;51.118;7.210;2023-06-05T05:46:40;5.20;;;3.43;;
6983;SDS011;3532;51.118;7.210;2023-06-05T05:49:06;4.43;;;3.33;;
6983;SDS011;3532;51.118;7.210;2023-06-05T05:51:31;5.70;;;3.30;;
6983;SDS011;3532;51.118;7.210;2023-06-05T05:53:56;3.33;;;3.03;;
6983;SDS011;3532;51.118;7.210;2023-06-05T05:56:21;3.53;;;3.00;;
6983;SDS011;3532;51.118;7.210;2023-06-05T05:58:47;3.47;;;3.10;;
6983;SDS011;3532;51.118;7.210;2023-06-05T06:01:12;3.67;;;2.70;;
6983;SDS011;3532;51.118;7.210;2023-06-05T06:03:38;6.80;;;3.50;;
6983;SDS011;3532;51.118;7.210;2023-06-05T06:06:04;6.40;;;2.80;;
6983;SDS011;3532;51.118;7.210;2023-06-05T06:08:32;6.30;;;3.10;;
6983;SDS011;3532;51.118;7.210;2023-06-05T06:10:58;4.27;;;2.90;;
6983;SDS011;3532;51.118;7.210;2023-06-05T06:13:24;3.80;;;3.03;;
6983;SDS011;3532;51.118;7.210;2023-06-05T06:15:49;3.00;;;2.50;;
6983;SDS011;3532;51.118;7.210;2023-06-05T06:18:15;3.43;;;2.80;;
6983;SDS011;3532;51.118;7.210;2023-06-05T06:20:40;4.37;;;2.73;;
6983;SDS011;3532;51.118;7.210;2023-06-05T06:23:06;3.77;;;2.63;;
6983;SDS011;3532;51.118;7.210;2023-06-05T06:25:31;6.53;;;3.10;;
6983;SDS011;3532;51.118;7.210;2023-06-05T06:28:00;5.63;;;2.90;;
6983;SDS011;3532;51.118;7.210;2023-06-05T06:30:26;4.67;;;2.73;;
6983;SDS011;3532;51.118;7.210;2023-06-05T06:32:52;3.87;;;2.77;;
6983;SDS011;3532;51.118;7.210;2023-06-05T06:35:19;4.00;;;3.00;;
6983;SDS011;3532;51.118;7.210;2023-06-05T06:37:45;3.97;;;2.53;;
6983;SDS011;3532;51.118;7.210;2023-06-05T06:40:11;4.23;;;2.73;;
6983;SDS011;3532;51.118;7.210;2023-06-05T06:42:36;6.00;;;2.87;;
6983;SDS011;3532;51.118;7.210;2023-06-05T06:45:02;4.07;;;2.60;;
6983;SDS011;3532;51.118;7.210;2023-06-05T06:47:29;3.17;;;2.70;;
6983;SDS011;3532;51.118;7.210;2023-06-05T06:49:54;4.13;;;2.60;;
6983;SDS011;3532;51.118;7.210;2023-06-05T06:52:19;4.43;;;2.50;;
6983;SDS011;3532;51.118;7.210;2023-06-05T06:54:45;4.60;;;2.77;;
6983;SDS011;3532;51.118;7.210;2023-06-05T06:57:11;3.40;;;2.90;;
6983;SDS011;3532;51.118;7.210;2023-06-05T06:59:37;3.17;;;2.33;;
6983;SDS011;3532;51.118;7.210;2023-06-05T07:04:41;7.10;;;3.23;;
6983;SDS011;3532;51.118;7.210;2023-06-05T07:07:10;2.83;;;2.33;;
6983;SDS011;3532;51.118;7.210;2023-06-05T07:09:37;4.53;;;2.07;;
6983;SDS011;3532;51.118;7.210;2023-06-05T07:12:03;5.17;;;2.70;;
6983;SDS011;3532;51.118;7.210;2023-06-05T07:14:30;3.67;;;3.23;;
6983;SDS011;3532;51.118;7.210;2023-06-05T07:16:57;4.63;;;2.93;;
6983;SDS011;3532;51.118;7.210;2023-06-05T07:19:24;3.77;;;3.23;;
6983;SDS011;3532;51.118;7.210;2023-06-05T07:21:50;6.20;;;2.67;;
6983;SDS011;3532;51.118;7.210;2023-06-05T07:24:15;3.77;;;2.50;;
6983;SDS011;3532;51.118;7.210;2023-06-05T07:26:43;6.60;;;2.60;;
6983;SDS011;3532;51.118;7.210;2023-06-05T07:29:08;2.97;;;2.60;;
6983;SDS011;3532;51.118;7.210;2023-06-05T07:31:34;3.07;;;2.70;;
6983;SDS011;3532;51.118;7.210;2023-06-05T07:33:59;3.70;;;2.40;;
6983;SDS011;3532;51.118;7.210;2023-06-05T07:36:24;2.70;;;2.50;;
6983;SDS011;3532;51.118;7.210;2023-06-05T07:38:50;4.63;;;3.17;;
6983;SDS011;3532;51.118;7.210;2023-06-05T07:41:15;3.07;;;2.83;;
6983;SDS011;3532;51.118;7.210;2023-06-05T07:43:40;4.13;;;2.63;;
6983;SDS011;3532;51.118;7.210;2023-06-05T07:46:07;3.47;;;2.97;;
6983;SDS011;3532;51.118;7.210;2023-06-05T07:48:34;6.20;;;2.90;;
6983;SDS011;3532;51.118;7.210;2023-06-05T07:51:00;3.23;;;2.90;;
6983;SDS011;3532;51.118;7.210;2023-06-05T07:53:25;3.53;;;3.23;;
6983;SDS011;3532;51.118;7.210;2023-06-05T07:55:50;3.90;;;3.57;;
6983;SDS011;3532;51.118;7.210;2023-06-05T07:58:17;6.00;;;3.70;;
6983;SDS011;3532;51.118;7.210;2023-06-05T08:00:42;3.93;;;3.63;;
6983;SDS011;3532;51.118;7.210;2023-06-05T08:03:08;4.33;;;3.93;;
6983;SDS011;3532;51.118;7.210;2023-06-05T08:05:33;3.90;;;3.60;;
6983;SDS011;3532;51.118;7.210;2023-06-05T08:08:00;9.47;;;3.73;;
6983;SDS011;3532;51.118;7.210;2023-06-05T08:10:27;5.57;;;3.07;;
6983;SDS011;3532;51.118;7.210;2023-06-05T08:12:52;3.63;;;3.30;;
6983;SDS011;3532;51.118;7.210;2023-06-05T08:15:18;4.07;;;3.53;;
6983;SDS011;3532;51.118;7.210;2023-06-05T08:17:43;3.43;;;3.10;;
6983;SDS011;3532;51.118;7.210;2023-06-05T08:20:08;3.40;;;3.10;;
6983;SDS011;3532;51.118;7.210;2023-06-05T08:22:36;3.40;;;3.10;;
6983;SDS011;3532;51.118;7.210;2023-06-05T08:25:05;4.23;;;2.93;;
6983;SDS011;3532;51.118;7.210;2023-06-05T08:27:31;4.03;;;3.00;;
6983;SDS011;3532;51.118;7.210;2023-06-05T08:29:56;6.73;;;3.17;;
6983;SDS011;3532;51.118;7.210;2023-06-05T08:32:22;2.97;;;2.77;;
6983;SDS011;3532;51.118;7.210;2023-06-05T08:34:47;5.87;;;3.30;;
6983;SDS011;3532;51.118;7.210;2023-06-05T08:37:12;4.77;;;3.40;;
6983;SDS011;3532;51.118;7.210;2023-06-05T08:39:38;3.40;;;3.10;;
6983;SDS011;3532;51.118;7.210;2023-06-05T08:42:03;4.97;;;3.10;;
6983;SDS011;3532;51.118;7.210;2023-06-05T08:44:30;3.77;;;2.93;;
6983;SDS011;3532;51.118;7.210;2023-06-05T08:47:00;3.60;;;3.30;;
6983;SDS011;3532;51.118;7.210;2023-06-05T08:49:27;3.10;;;2.80;;
6983;SDS011;3532;51.118;7.210;2023-06-05T08:52:02;3.47;;;2.80;;
6983;SDS011;3532;51.118;7.210;2023-06-05T08:54:34;3.87;;;3.03;;
6983;SDS011;3532;51.118;7.210;2023-06-05T08:57:02;3.20;;;2.67;;
6983;SDS011;3532;51.118;7.210;2023-06-05T08:59:29;3.17;;;2.87;;
6983;SDS011;3532;51.118;7.210;2023-06-05T09:01:55;3.40;;;3.20;;
6983;SDS011;3532;51.118;7.210;2023-06-05T09:04:21;4.10;;;2.60;;
6983;SDS011;3532;51.118;7.210;2023-06-05T09:06:46;3.07;;;2.80;;
6983;SDS011;3532;51.118;7.210;2023-06-05T09:09:13;2.80;;;2.53;;
6983;SDS011;3532;51.118;7.210;2023-06-05T09:11:40;3.73;;;2.50;;
6983;SDS011;3532;51.118;7.210;2023-06-05T09:14:05;3.93;;;2.33;;
6983;SDS011;3532;51.118;7.210;2023-06-05T09:19:00;3.23;;;2.70;;
6983;SDS011;3532;51.118;7.210;2023-06-05T09:21:27;3.03;;;2.60;;
6983;SDS011;3532;51.118;7.210;2023-06-05T09:26:48;4.73;;;2.60;;
6983;SDS011;3532;51.118;7.210;2023-06-05T09:29:21;2.93;;;2.60;;
6983;SDS011;3532;51.118;7.210;2023-06-05T09:31:51;4.57;;;3.17;;
6983;SDS011;3532;51.118;7.210;2023-06-05T09:34:24;3.60;;;3.17;;
6983;SDS011;3532;51.118;7.210;2023-06-05T09:36:55;3.17;;;2.87;;
6983;SDS011;3532;51.118;7.210;2023-06-05T09:39:22;3.40;;;2.27;;
6983;SDS011;3532;51.118;7.210;2023-06-05T09:41:50;4.33;;;2.60;;
6983;SDS011;3532;51.118;7.210;2023-06-05T09:44:17;3.50;;;2.90;;
6983;SDS011;3532;51.118;7.210;2023-06-05T09:46:49;2.67;;;2.47;;
6983;SDS011;3532;51.118;7.210;2023-06-05T09:49:21;2.87;;;2.50;;
6983;SDS011;3532;51.118;7.210;2023-06-05T09:51:48;4.30;;;3.20;;
6983;SDS011;3532;51.118;7.210;2023-06-05T09:54:14;3.43;;;2.70;;
6983;SDS011;3532;51.118;7.210;2023-06-05T09:56:40;2.77;;;2.40;;
6983;SDS011;3532;51.118;7.210;2023-06-05T09:59:06;4.30;;;2.70;;
6983;SDS011;3532;51.118;7.210;2023-06-05T10:01:33;5.50;;;2.60;;
6983;SDS011;3532;51.118;7.210;2023-06-05T10:04:08;3.83;;;2.73;;
6983;SDS011;3532;51.118;7.210;2023-06-05T10:06:34;5.83;;;3.30;;
6983;SDS011;3532;51.118;7.210;2023-06-05T10:09:02;5.70;;;2.77;;
6983;SDS011;3532;51.118;7.210;2023-06-05T10:11:28;2.87;;;2.47;;
6983;SDS011;3532;51.118;7.210;2023-06-05T10:13:54;2.87;;;2.57;;
6983;SDS011;3532;51.118;7.210;2023-06-05T10:16:19;5.53;;;3.00;;
6983;SDS011;3532;51.118;7.210;2023-06-05T10:18:46;2.73;;;2.50;;
6983;SDS011;3532;51.118;7.210;2023-06-05T10:21:14;3.07;;;2.53;;
6983;SDS011;3532;51.118;7.210;2023-06-05T10:23:40;4.13;;;2.70;;
6983;SDS011;3532;51.118;7.210;2023-06-05T10:26:10;3.23;;;2.87;;
6983;SDS011;3532;51.118;7.210;2023-06-05T10:29:08;3.87;;;2.90;;
6983;SDS011;3532;51.118;7.210;2023-06-05T10:34:23;2.80;;;2.60;;
6983;SDS011;3532;51.118;7.210;2023-06-05T10:39:39;3.57;;;2.80;;
6983;SDS011;3532;51.118;7.210;2023-06-05T10:42:04;3.00;;;2.73;;
6983;SDS011;3532;51.118;7.210;2023-06-05T10:44:42;2.93;;;2.60;;
6983;SDS011;3532;51.118;7.210;2023-06-05T10:52:42;5.53;;;3.00;;
6983;SDS011;3532;51.118;7.210;2023-06-05T10:55:08;3.87;;;3.47;;
6983;SDS011;3532;51.118;7.210;2023-06-05T11:01:25;6.47;;;2.70;;
6983;SDS011;3532;51.118;7.210;2023-06-05T11:03:57;4.83;;;3.13;;
6983;SDS011;3532;51.118;7.210;2023-06-05T11:06:22;2.67;;;2.47;;
6983;SDS011;3532;51.118;7.210;2023-06-05T11:14:24;5.17;;;3.40;;
6983;SDS011;3532;51.118;7.210;2023-06-05T11:16:50;6.20;;;3.10;;
6983;SDS011;3532;51.118;7.210;2023-06-05T11:24:43;3.87;;;2.87;;
6983;SDS011;3532;51.118;7.210;2023-06-05T11:27:08;3.80;;;2.70;;
6983;SDS011;3532;51.118;7.210;2023-06-05T11:30:10;4.83;;;3.00;;
6983;SDS011;3532;51.118;7.210;2023-06-05T11:32:36;4.17;;;3.00;;
6983;SDS011;3532;51.118;7.210;2023-06-05T11:35:02;5.73;;;3.00;;
6983;SDS011;3532;51.118;7.210;2023-06-05T11:37:27;6.17;;;2.93;;
6983;SDS011;3532;51.118;7.210;2023-06-05T11:39:53;8.13;;;2.70;;
6983;SDS011;3532;51.118;7.210;2023-06-05T11:42:22;3.53;;;2.70;;
6983;SDS011;3532;51.118;7.210;2023-06-05T11:44:48;3.87;;;2.30;;
6983;SDS011;3532;51.118;7.210;2023-06-05T11:47:23;4.17;;;2.63;;
6983;SDS011;3532;51.118;7.210;2023-06-05T11:49:49;3.30;;;2.97;;
6983;SDS011;3532;51.118;7.210;2023-06-05T11:52:18;3.93;;;2.73;;
6983;SDS011;3532;51.118;7.210;2023-06-05T11:54:43;3.17;;;2.57;;
6983;SDS011;3532;51.118;7.210;2023-06-05T11:57:18;3.33;;;2.67;;
6983;SDS011;3532;51.118;7.210;2023-06-05T11:59:44;5.63;;;3.20;;
6983;SDS011;3532;51.118;7.210;2023-06-05T12:02:09;6.03;;;3.03;;
6983;SDS011;3532;51.118;7.210;2023-06-05T12:04:36;7.10;;;3.33;;
6983;SDS011;3532;51.118;7.210;2023-06-05T12:07:04;3.40;;;2.83;;
6983;SDS011;3532;51.118;7.210;2023-06-05T12:09:29;5.07;;;2.87;;
6983;SDS011;3532;51.118;7.210;2023-06-05T12:12:05;3.43;;;2.63;;
6983;SDS011;3532;51.118;7.210;2023-06-05T12:14:34;3.63;;;2.70;;
6983;SDS011;3532;51.118;7.210;2023-06-05T12:17:08;5.77;;;3.07;;
6983;SDS011;3532;51.118;7.210;2023-06-05T12:19:34;3.27;;;2.57;;
6983;SDS011;3532;51.118;7.210;2023-06-05T12:22:03;4.17;;;2.60;;
6983;SDS011;3532;51.118;7.210;2023-06-05T12:24:30;5.10;;;2.87;;
6983;SDS011;3532;51.118;7.210;2023-06-05T12:27:00;3.50;;;2.63;;
6983;SDS011;3532;51.118;7.210;2023-06-05T12:29:29;4.13;;;2.80;;
6983;SDS011;3532;51.118;7.210;2023-06-05T12:31:59;3.13;;;2.83;;
6983;SDS011;3532;51.118;7.210;2023-06-05T12:34:42;3.30;;;2.77;;
6983;SDS011;3532;51.118;7.210;2023-06-05T12:37:25;5.53;;;2.60;;
6983;SDS011;3532;51.118;7.210;2023-06-05T12:39:56;5.07;;;3.03;;
6983;SDS011;3532;51.118;7.210;2023-06-05T12:42:23;3.37;;;2.70;;
6983;SDS011;3532;51.118;7.210;2023-06-05T12:44:49;3.10;;;2.80;;
6983;SDS011;3532;51.118;7.210;2023-06-05T12:47:14;3.33;;;3.00;;
6983;SDS011;3532;51.118;7.210;2023-06-05T12:49:39;3.50;;;2.63;;
6983;SDS011;3532;51.118;7.210;2023-06-05T12:52:06;4.70;;;2.90;;
6983;SDS011;3532;51.118;7.210;2023-06-05T12:54:33;2.67;;;2.47;;
6983;SDS011;3532;51.118;7.210;2023-06-05T12:56:59;3.70;;;3.03;;
6983;SDS011;3532;51.118;7.210;2023-06-05T12:59:25;4.00;;;3.10;;
6983;SDS011;3532;51.118;7.210;2023-06-05T13:01:50;5.73;;;2.90;;
6983;SDS011;3532;51.118;7.210;2023-06-05T13:04:16;4.47;;;2.90;;
6983;SDS011;3532;51.118;7.210;2023-06-05T13:06:41;6.90;;;2.70;;
6983;SDS011;3532;51.118;7.210;2023-06-05T13:09:07;3.87;;;2.40;;
6983;SDS011;3532;51.118;7.210;2023-06-05T13:11:34;5.07;;;2.67;;
6983;SDS011;3532;51.118;7.210;2023-06-05T13:13:59;4.40;;;2.57;;
6983;SDS011;3532;51.118;7.210;2023-06-05T13:16:25;3.90;;;2.70;;
6983;SDS011;3532;51.118;7.210;2023-06-05T13:18:51;3.07;;;2.77;;
6983;SDS011;3532;51.118;7.210;2023-06-05T13:21:16;4.27;;;2.53;;
6983;SDS011;3532;51.118;7.210;2023-06-05T13:23:41;3.47;;;2.80;;
6983;SDS011;3532;51.118;7.210;2023-06-05T13:26:07;3.80;;;2.63;;
6983;SDS011;3532;51.118;7.210;2023-06-05T13:28:32;3.83;;;2.77;;
6983;SDS011;3532;51.118;7.210;2023-06-05T13:30:57;3.90;;;2.90;;
6983;SDS011;3532;51.118;7.210;2023-06-05T13:33:23;3.57;;;2.53;;
6983;SDS011;3532;51.118;7.210;2023-06-05T13:35:49;2.93;;;2.73;;
6983;SDS011;3532;51.118;7.210;2023-06-05T13:38:15;2.77;;;2.40;;
6983;SDS011;3532;51.118;7.210;2023-06-05T13:40:41;4.50;;;2.93;;
6983;SDS011;3532;51.118;7.210;2023-06-05T13:43:07;4.83;;;2.60;;
6983;SDS011;3532;51.118;7.210;2023-06-05T13:45:32;2.80;;;2.43;;
6983;SDS011;3532;51.118;7.210;2023-06-05T13:47:57;4.83;;;2.40;;
6983;SDS011;3532;51.118;7.210;2023-06-05T13:50:23;6.10;;;2.83;;
6983;SDS011;3532;51.118;7.210;2023-06-05T13:52:48;3.03;;;2.73;;
6983;SDS011;3532;51.118;7.210;2023-06-05T13:55:13;2.80;;;2.50;;
6983;SDS011;3532;51.118;7.210;2023-06-05T13:57:39;4.90;;;2.60;;
6983;SDS011;3532;51.118;7.210;2023-06-05T14:00:05;2.97;;;2.63;;
6983;SDS011;3532;51.118;7.210;2023-06-05T14:02:31;3.10;;;2.77;;
6983;SDS011;3532;51.118;7.210;2023-06-05T14:04:57;3.03;;;2.33;;
6983;SDS011;3532;51.118;7.210;2023-06-05T14:07:22;3.90;;;2.60;;
6983;SDS011;3532;51.118;7.210;2023-06-05T14:09:48;2.60;;;2.37;;
6983;SDS011;3532;51.118;7.210;2023-06-05T14:12:13;3.00;;;2.57;;
6983;SDS011;3532;51.118;7.210;2023-06-05T14:14:38;4.07;;;2.90;;
6983;SDS011;3532;51.118;7.210;2023-06-05T14:17:04;9.33;;;2.60;;
6983;SDS011;3532;51.118;7.210;2023-06-05T14:19:29;2.73;;;2.53;;
6983;SDS011;3532;51.118;7.210;2023-06-05T14:21:55;5.23;;;2.60;;
6983;SDS011;3532;51.118;7.210;2023-06-05T14:24:20;5.47;;;3.07;;
6983;SDS011;3532;51.118;7.210;2023-06-05T14:26:46;2.73;;;2.40;;
6983;SDS011;3532;51.118;7.210;2023-06-05T14:29:12;6.87;;;2.40;;
6983;SDS011;3532;51.118;7.210;2023-06-05T14:31:37;4.03;;;2.33;;
6983;SDS011;3532;51.118;7.210;2023-06-05T14:34:02;3.73;;;2.10;;
6983;SDS011;3532;51.118;7.210;2023-06-05T14:36:28;2.80;;;2.50;;
6983;SDS011;3532;51.118;7.210;2023-06-05T14:38:53;6.23;;;2.63;;
6983;SDS011;3532;51.118;7.210;2023-06-05T14:41:19;2.63;;;2.43;;
6983;SDS011;3532;51.118;7.210;2023-06-05T14:43:44;4.97;;;2.87;;
6983;SDS011;3532;51.118;7.210;2023-06-05T14:46:09;4.43;;;2.83;;
6983;SDS011;3532;51.118;7.210;2023-06-05T14:48:35;3.43;;;2.67;;
6983;SDS011;3532;51.118;7.210;2023-06-05T14:51:00;3.10;;;2.60;;
6983;SDS011;3532;51.118;7.210;2023-06-05T14:53:25;3.07;;;2.50;;
6983;SDS011;3532;51.118;7.210;2023-06-05T14:55:52;2.50;;;2.30;;
6983;SDS011;3532;51.118;7.210;2023-06-05T14:58:17;7.03;;;2.80;;
6983;SDS011;3532;51.118;7.210;2023-06-05T15:00:43;2.77;;;2.47;;
6983;SDS011;3532;51.118;7.210;2023-06-05T15:03:09;4.73;;;3.03;;
6983;SDS011;3532;51.118;7.210;2023-06-05T15:05:35;4.00;;;2.50;;
6983;SDS011;3532;51.118;7.210;2023-06-05T15:08:01;3.43;;;2.60;;
6983;SDS011;3532;51.118;7.210;2023-06-05T15:10:26;4.53;;;2.23;;
6983;SDS011;3532;51.118;7.210;2023-06-05T15:12:52;3.73;;;2.77;;
6983;SDS011;3532;51.118;7.210;2023-06-05T15:15:24;2.93;;;2.63;;
6983;SDS011;3532;51.118;7.210;2023-06-05T15:17:49;4.30;;;2.83;;
6983;SDS011;3532;51.118;7.210;2023-06-05T15:20:17;3.53;;;2.60;;
6983;SDS011;3532;51.118;7.210;2023-06-05T15:22:43;2.60;;;2.40;;
6983;SDS011;3532;51.118;7.210;2023-06-05T15:25:08;3.03;;;2.43;;
6983;SDS011;3532;51.118;7.210;2023-06-05T15:27:34;2.33;;;2.03;;
6983;SDS011;3532;51.118;7.210;2023-06-05T15:29:59;3.10;;;2.67;;
6983;SDS011;3532;51.118;7.210;2023-06-05T15:32:25;3.10;;;2.87;;
6983;SDS011;3532;51.118;7.210;2023-06-05T15:34:50;3.90;;;3.00;;
6983;SDS011;3532;51.118;7.210;2023-06-05T15:37:16;3.17;;;2.50;;
6983;SDS011;3532;51.118;7.210;2023-06-05T15:39:42;3.37;;;2.67;;
6983;SDS011;3532;51.118;7.210;2023-06-05T15:42:07;3.97;;;2.40;;
6983;SDS011;3532;51.118;7.210;2023-06-05T15:44:33;3.90;;;2.53;;
6983;SDS011;3532;51.118;7.210;2023-06-05T15:47:01;4.00;;;2.70;;
6983;SDS011;3532;51.118;7.210;2023-06-05T15:49:27;4.47;;;2.67;;
6983;SDS011;3532;51.118;7.210;2023-06-05T15:51:52;6.50;;;3.00;;
6983;SDS011;3532;51.118;7.210;2023-06-05T15:54:17;4.07;;;2.53;;
6983;SDS011;3532;51.118;7.210;2023-06-05T15:56:48;4.73;;;2.97;;